Time;durP1;ratioP1;P1;durP2;ratioP2;P2;SDS_P1;SDS_P2;PMS_P1;PMS_P2;Temp;Humidity;BMP_temperature;BMP_pressure;BME280_temperature;BME280_humidity;BME280_pressure;Samples;Min_cycle;Max_cycle;Signal;HPM_P1;HPM_P2
2021/08/01 00:02:23;;;;;;;8.60;4.68;;;;;;;;;;5114835;28;20028;-74
2021/08/01 00:04:49;;;;;;;12.60;4.40;;;;;;;;;;5114497;28;20024;-73
2021/08/01 00:07:14;;;;;;;8.90;4.78;;;28.10;52.20;;;;;;5114517;28;20108;-75
2021/08/01 00:09:40;;;;;;;7.68;4.60;;;27.80;55.70;;;;;;5114568;28;20048;-75
2021/08/01 00:12:06;;;;;;;10.18;4.75;;;27.80;55.60;;;;;;5114405;28;20048;-74
2021/08/01 00:14:32;;;;;;;6.57;4.53;;;27.80;55.70;;;;;;5114748;28;20015;-75
2021/08/01 00:16:58;;;;;;;7.07;4.68;;;27.80;55.50;;;;;;5114375;28;20023;-75
2021/08/01 00:19:24;;;;;;;7.50;4.50;;;27.80;55.30;;;;;;5114338;28;20016;-75
2021/08/01 00:21:50;;;;;;;8.63;4.72;;;27.80;55.10;;;;;;5114259;28;20032;-75
2021/08/01 00:24:16;;;;;;;6.30;4.47;;;27.80;54.90;;;;;;5114315;28;20027;-75
2021/08/01 00:26:41;;;;;;;10.27;4.80;;;27.80;54.80;;;;;;5114350;28;20015;-75
2021/08/01 00:29:07;;;;;;;7.65;4.78;;;27.80;54.50;;;;;;5114080;28;20022;-74
2021/08/01 00:31:33;;;;;;;7.43;5.05;;;27.70;54.20;;;;;;5114248;28;20027;-74
2021/08/01 00:33:59;;;;;;;10.35;4.60;;;27.80;54.30;;;;;;5114199;28;20024;-75
2021/08/01 00:36:25;;;;;;;6.68;4.25;;;27.80;54.20;;;;;;5114075;28;20121;-75
2021/08/01 00:38:51;;;;;;;10.65;4.80;;;27.70;54.00;;;;;;5114276;28;20041;-74
2021/08/01 00:41:17;;;;;;;8.88;4.63;;;27.70;54.10;;;;;;5113551;28;20035;-76
2021/08/01 00:43:42;;;;;;;9.68;4.65;;;27.70;54.10;;;;;;5114091;28;20194;-75
2021/08/01 00:46:08;;;;;;;8.43;4.88;;;27.70;54.00;;;;;;5113809;28;20023;-74
2021/08/01 00:48:34;;;;;;;9.25;4.80;;;27.70;54.10;;;;;;5113936;28;20053;-75
2021/08/01 00:51:00;;;;;;;7.93;4.60;;;27.70;54.10;;;;;;5113688;28;20023;-75
2021/08/01 00:53:26;;;;;;;7.72;4.95;;;27.70;54.00;;;;;;5113895;28;20054;-74
2021/08/01 00:55:52;;;;;;;11.88;4.50;;;27.70;53.90;;;;;;5113863;28;20027;-74
2021/08/01 00:58:18;;;;;;;12.38;4.95;;;27.70;53.50;;;;;;5112336;28;20476;-75
2021/08/01 01:04:14;;;;;;;8.85;4.50;;;27.70;53.70;;;;;;5110663;28;20044;-75
2021/08/01 01:06:45;;;;;;;7.85;4.90;;;27.70;53.50;;;;;;5100449;28;20039;-74
2021/08/01 01:09:14;;;;;;;8.65;4.88;;;27.70;53.80;;;;;;5113607;28;20023;-74
2021/08/01 01:11:42;;;;;;;9.52;4.70;;;27.70;53.00;;;;;;5113501;28;20055;-75
2021/08/01 01:14:14;;;;;;;8.20;5.03;;;27.70;53.00;;;;;;5112833;28;20035;-74
2021/08/01 01:16:42;;;;;;;;;;;27.60;52.60;;;;;;5113881;28;20024;-75
2021/08/01 01:19:13;;;;;;;9.98;4.63;;;27.60;52.30;;;;;;5113166;28;19910;-75
2021/08/01 01:21:55;;;;;;;7.35;5.28;;;27.70;52.10;;;;;;5113258;28;20035;-75
2021/08/01 01:24:27;;;;;;;10.52;4.80;;;27.70;52.20;;;;;;5113336;28;20028;-75
2021/08/01 01:26:55;;;;;;;;;;;27.70;52.00;;;;;;5113780;28;20024;-74
2021/08/01 01:29:31;;;;;;;11.82;4.72;;;27.70;51.90;;;;;;5113397;28;19910;-75
2021/08/01 01:31:59;;;;;;;15.02;5.30;;;27.70;51.60;;;;;;5113172;28;20392;-75
2021/08/01 01:34:36;;;;;;;13.48;4.75;;;27.70;51.20;;;;;;5113394;28;20071;-75
2021/08/01 01:37:04;;;;;;;17.05;5.72;;;27.70;51.20;;;;;;5113023;28;20032;-74
2021/08/01 01:39:32;;;;;;;12.38;5.10;;;27.70;50.90;;;;;;5112727;28;20225;-75
2021/08/01 01:41:58;;;;;;;11.05;4.88;;;27.70;50.90;;;;;;5112996;28;20055;-75
2021/08/01 01:44:25;;;;;;;9.82;5.22;;;27.70;50.60;;;;;;5112702;28;20452;-75
2021/08/01 01:46:51;;;;;;;10.10;5.18;;;27.80;50.60;;;;;;5113143;28;20020;-73
2021/08/01 01:49:17;;;;;;;11.43;4.95;;;27.80;50.80;;;;;;5112993;28;20024;-75
2021/08/01 01:51:44;;;;;;;12.18;5.57;;;27.80;50.90;;;;;;5113360;28;20361;-75
2021/08/01 01:54:10;;;;;;;11.60;5.40;;;27.80;51.00;;;;;;5114822;28;20031;-75
2021/08/01 01:56:37;;;;;;;12.38;4.85;;;27.80;50.50;;;;;;5116840;28;20019;-75
2021/08/01 01:59:03;;;;;;;12.73;5.15;;;27.80;50.10;;;;;;5116686;28;20030;-71
2021/08/01 02:01:29;;;;;;;12.23;4.97;;;27.80;49.90;;;;;;5116901;28;20493;-75
2021/08/01 02:03:54;;;;;;;12.02;5.88;;;27.80;50.00;;;;;;5116895;28;20038;-74
2021/08/01 02:06:21;;;;;;;17.45;5.53;;;27.80;49.80;;;;;;5117053;28;20027;-74
2021/08/01 02:09:01;;;;;;;15.65;4.97;;;27.80;49.70;;;;;;5116853;27;20055;-75
2021/08/01 02:11:35;;;;;;;13.85;4.88;;;27.90;49.60;;;;;;5116839;28;20100;-75
2021/08/01 02:14:07;;;;;;;12.38;4.95;;;27.90;49.20;;;;;;5116571;27;20540;-74
2021/08/01 02:16:37;;;;;;;10.55;4.45;;;28.00;49.20;;;;;;5116248;28;20073;-74
2021/08/01 02:19:07;;;;;;;10.98;4.95;;;28.00;49.30;;;;;;5116404;28;20016;-74
2021/08/01 02:21:34;;;;;;;15.98;5.63;;;28.10;49.30;;;;;;5116483;28;20480;-74
2021/08/01 02:24:01;;;;;;;9.95;5.10;;;28.00;49.30;;;;;;5116565;28;20391;-75
2021/08/01 02:26:27;;;;;;;12.60;5.28;;;28.00;49.40;;;;;;5116017;28;20106;-75
2021/08/01 02:28:55;;;;;;;11.68;4.75;;;27.90;49.50;;;;;;5116538;28;20048;-74
2021/08/01 02:31:22;;;;;;;12.52;5.38;;;27.90;49.50;;;;;;5116475;28;20065;-74
2021/08/01 02:33:49;;;;;;;12.15;4.75;;;27.90;49.70;;;;;;5115921;28;20020;-74
2021/08/01 02:36:17;;;;;;;14.55;5.38;;;27.90;49.60;;;;;;5116060;28;20573;-74
2021/08/01 02:38:45;;;;;;;13.60;5.05;;;27.90;49.60;;;;;;5116084;28;20024;-74
2021/08/01 02:41:25;;;;;;;14.45;5.10;;;27.90;49.60;;;;;;5116134;28;20069;-73
2021/08/01 02:43:51;;;;;;;20.98;4.97;;;27.90;49.60;;;;;;5116116;27;20490;-75
2021/08/01 02:46:21;;;;;;;21.63;5.78;;;27.90;49.70;;;;;;5116058;28;20016;-75
2021/08/01 02:48:48;;;;;;;10.57;4.60;;;27.90;49.70;;;;;;5116024;28;20168;-74
2021/08/01 02:51:16;;;;;;;17.58;5.32;;;27.90;49.70;;;;;;5115964;28;20068;-75
2021/08/01 02:53:46;;;;;;;15.23;5.43;;;27.90;49.80;;;;;;5116187;28;20478;-74
2021/08/01 02:56:14;;;;;;;11.18;5.43;;;27.90;49.90;;;;;;5115871;28;20098;-74
2021/08/01 02:58:41;;;;;;;16.83;5.57;;;27.90;50.10;;;;;;5115770;28;20098;-75
2021/08/01 03:01:09;;;;;;;15.90;5.18;;;27.90;50.50;;;;;;5115809;28;20028;-74
2021/08/01 03:03:36;;;;;;;19.92;5.85;;;27.90;49.80;;;;;;5115873;28;20479;-75
2021/08/01 03:06:04;;;;;;;9.00;5.03;;;27.90;49.80;;;;;;5115203;28;20537;-75
2021/08/01 03:08:32;;;;;;;16.40;5.22;;;27.80;50.00;;;;;;5115767;28;20506;-74
2021/08/01 03:10:58;;;;;;;19.92;4.90;;;27.90;50.20;;;;;;5115733;28;20096;-74
2021/08/01 03:13:24;;;;;;;18.05;5.40;;;27.90;50.00;;;;;;5115606;28;20023;-74
2021/08/01 03:15:51;;;;;;;13.90;5.00;;;27.90;50.00;;;;;;5115484;28;20022;-74
2021/08/01 03:18:17;;;;;;;14.05;4.85;;;27.90;50.20;;;;;;5115530;28;20031;-74
2021/08/01 03:20:43;;;;;;;19.38;5.60;;;27.90;50.20;;;;;;5115335;28;20096;-74
2021/08/01 03:23:09;;;;;;;16.10;5.55;;;27.90;50.20;;;;;;5115347;28;20042;-75
2021/08/01 03:25:35;;;;;;;15.25;5.13;;;28.00;50.50;;;;;;5115465;28;20024;-74
2021/08/01 03:28:02;;;;;;;13.07;4.88;;;28.00;50.50;;;;;;5115161;28;20076;-73
2021/08/01 03:30:28;;;;;;;16.83;5.03;;;28.00;50.50;;;;;;5115263;28;20024;-74
2021/08/01 03:32:54;;;;;;;18.15;5.53;;;28.00;50.40;;;;;;5115443;28;20153;-74
2021/08/01 03:35:21;;;;;;;14.50;5.65;;;28.00;50.60;;;;;;5114942;28;20086;-75
2021/08/01 03:37:47;;;;;;;27.10;5.38;;;28.00;50.80;;;;;;5115235;28;20493;-74
2021/08/01 03:40:14;;;;;;;20.02;5.47;;;28.00;51.30;;;;;;5115049;28;20019;-75
2021/08/01 03:42:39;;;;;;;12.23;5.03;;;28.10;51.90;;;;;;5114858;28;20036;-74
2021/08/01 03:45:08;;;;;;;18.42;5.32;;;28.10;52.70;;;;;;5115181;28;20038;-74
2021/08/01 03:47:34;;;;;;;15.05;4.80;;;28.20;52.80;;;;;;5114610;28;20024;-75
2021/08/01 03:50:00;;;;;;;17.65;5.43;;;28.20;52.80;;;;;;5114863;27;20019;-75
2021/08/01 03:52:26;;;;;;;19.30;5.82;;;28.20;53.20;;;;;;5114558;28;20529;-75
2021/08/01 03:54:52;;;;;;;18.77;5.40;;;28.20;53.60;;;;;;5114842;28;20533;-75
2021/08/01 03:57:17;;;;;;;15.90;5.40;;;28.20;54.20;;;;;;5114761;28;20023;-74
2021/08/01 03:59:43;;;;;;;17.40;6.03;;;28.30;55.50;;;;;;5114644;28;20368;-75
2021/08/01 04:02:09;;;;;;;22.27;6.25;;;28.30;56.40;;;;;;5096444;28;20039;-74
2021/08/01 04:04:35;;;;;;;22.80;5.55;;;28.20;57.00;;;;;;5114437;28;20051;-73
2021/08/01 04:07:00;;;;;;;17.65;6.07;;;28.30;57.80;;;;;;5114452;28;20028;-73
2021/08/01 04:09:26;;;;;;;23.20;6.03;;;28.30;58.70;;;;;;5114346;28;20031;-74
2021/08/01 04:11:52;;;;;;;17.48;5.82;;;28.30;59.10;;;;;;5113941;28;20047;-74
2021/08/01 04:14:17;;;;;;;25.35;5.88;;;28.30;59.00;;;;;;5114417;28;20375;-73
2021/08/01 04:16:43;;;;;;;15.23;5.78;;;28.30;58.90;;;;;;5113725;28;20070;-74
2021/08/01 04:19:15;;;;;;;28.08;5.70;;;28.30;59.60;;;;;;5114341;28;20486;-74
2021/08/01 04:21:42;;;;;;;24.27;6.18;;;28.30;59.70;;;;;;5113924;28;20035;-73
2021/08/01 04:24:08;;;;;;;16.95;6.38;;;28.30;60.00;;;;;;5113880;28;20024;-72
2021/08/01 04:26:35;;;;;;;17.42;5.65;;;28.30;60.00;;;;;;5113380;28;20049;-71
2021/08/01 04:29:01;;;;;;;19.95;5.68;;;28.30;60.00;;;;;;5110478;28;20514;-74
2021/08/01 04:31:27;;;;;;;17.60;5.75;;;28.30;59.90;;;;;;5110837;28;20055;-72
2021/08/01 04:33:52;;;;;;;15.15;5.70;;;28.20;59.70;;;;;;5111232;28;20104;-72
2021/08/01 04:36:23;;;;;;;25.52;5.65;;;28.30;59.60;;;;;;4927880;28;20800;-72
2021/08/01 04:38:51;;;;;;;22.33;6.18;;;28.30;60.30;;;;;;5079450;28;20015;-72
2021/08/01 04:41:16;;;;;;;14.95;5.38;;;28.30;60.30;;;;;;5111496;28;20096;-74
2021/08/01 04:43:42;;;;;;;25.42;5.93;;;28.30;60.20;;;;;;5110772;28;20031;-72
2021/08/01 04:46:08;;;;;;;15.75;5.68;;;28.20;60.00;;;;;;5110696;28;20028;-73
2021/08/01 04:48:33;;;;;;;23.33;6.68;;;28.30;60.10;;;;;;5113222;28;20426;-73
2021/08/01 04:50:59;;;;;;;15.35;5.53;;;28.30;59.80;;;;;;5113562;28;20047;-73
2021/08/01 04:53:25;;;;;;;19.50;5.60;;;28.30;59.80;;;;;;5113355;28;20027;-73
2021/08/01 04:55:50;;;;;;;18.20;5.72;;;28.30;60.00;;;;;;5112765;28;20027;-72
2021/08/01 04:58:16;;;;;;;30.10;6.00;;;28.20;60.00;;;;;;5113426;28;20428;-73
2021/08/01 05:00:42;;;;;;;19.88;6.03;;;28.20;60.10;;;;;;5112883;28;20054;-73
2021/08/01 05:03:08;;;;;;;16.85;6.53;;;28.20;60.00;;;;;;5112547;28;20031;-72
2021/08/01 05:05:38;;;;;;;18.23;5.30;;;28.20;59.90;;;;;;5113332;28;20379;-72
2021/08/01 05:08:05;;;;;;;15.93;6.10;;;28.20;59.90;;;;;;5113207;28;20015;-73
2021/08/01 05:10:31;;;;;;;17.23;6.18;;;28.30;59.90;;;;;;5107990;28;20028;-72
2021/08/01 05:12:57;;;;;;;25.35;6.30;;;28.30;60.00;;;;;;5109851;28;20036;-72
2021/08/01 05:15:23;;;;;;;17.20;5.95;;;28.30;59.80;;;;;;5111111;28;20081;-73
2021/08/01 05:17:49;;;;;;;22.65;5.97;;;28.30;59.90;;;;;;5111703;28;20111;-72
2021/08/01 05:20:15;;;;;;;22.55;6.78;;;28.30;59.80;;;;;;5112597;28;20479;-72
2021/08/01 05:22:40;;;;;;;32.55;7.50;;;28.30;59.60;;;;;;5113043;28;20089;-73
2021/08/01 05:25:07;;;;;;;20.17;5.30;;;28.30;59.60;;;;;;5113176;28;20016;-73
2021/08/01 05:27:32;;;;;;;17.73;5.60;;;28.30;59.60;;;;;;5114127;28;20106;-73
2021/08/01 05:29:58;;;;;;;20.95;5.30;;;28.20;59.20;;;;;;5117470;28;20111;-73
2021/08/01 05:32:24;;;;;;;21.88;5.35;;;28.30;58.50;;;;;;5117467;28;20015;-72
2021/08/01 05:34:50;;;;;;;25.17;5.97;;;28.20;58.30;;;;;;5117591;28;20008;-72
2021/08/01 05:37:16;;;;;;;19.58;6.57;;;28.20;58.30;;;;;;5117484;28;20024;-72
2021/08/01 05:39:41;;;;;;;17.48;5.28;;;28.20;58.60;;;;;;5117284;28;20468;-72
2021/08/01 05:42:07;;;;;;;24.10;5.57;;;28.20;58.60;;;;;;5115962;28;20028;-73
2021/08/01 05:44:33;;;;;;;18.80;5.40;;;28.20;58.90;;;;;;5115014;28;20103;-72
2021/08/01 05:47:00;;;;;;;18.27;6.63;;;28.20;58.80;;;;;;5116040;28;20488;-72
2021/08/01 05:49:25;;;;;;;17.70;5.88;;;28.20;58.90;;;;;;5116472;28;20465;-72
2021/08/01 05:51:51;;;;;;;16.95;5.88;;;28.30;59.50;;;;;;5116208;28;20027;-73
2021/08/01 05:54:17;;;;;;;18.05;5.68;;;28.30;58.80;;;;;;5114103;28;20110;-75
2021/08/01 05:56:42;;;;;;;19.45;6.50;;;28.30;58.70;;;;;;5113934;28;20038;-72
2021/08/01 05:59:08;;;;;;;13.15;5.60;;;28.30;58.80;;;;;;5113187;28;20076;-71
2021/08/01 06:01:34;;;;;;;33.70;6.28;;;;;;;;;;5115974;28;20035;-71
2021/08/01 06:04:00;;;;;;;27.75;6.60;;;;;;;;;;5115310;28;20031;-71
2021/08/01 06:06:26;;;;;;;19.83;6.22;;;;;;;;;;5113954;28;20024;-72
2021/08/01 06:08:53;;;;;;;22.85;6.30;;;;;;;;;;5114406;28;20023;-72
2021/08/01 06:11:20;;;;;;;20.83;7.07;;;;;;;;;;5116147;28;20115;-71
2021/08/01 06:13:46;;;;;;;15.40;6.10;;;;;;;;;;5116887;27;20028;-70
2021/08/01 06:16:13;;;;;;;23.70;8.15;;;;;;;;;;5116337;28;20372;-69
2021/08/01 06:18:40;;;;;;;24.85;6.32;;;;;;;;;;5115491;28;20397;-69
2021/08/01 06:21:09;;;;;;;32.03;7.82;;;;;;;;;;5116418;28;20427;-69
2021/08/01 06:23:36;;;;;;;18.42;5.95;;;;;;;;;;5116617;28;20028;-71
2021/08/01 06:26:03;;;;;;;22.33;7.15;;;;;;;;;;5116486;27;20016;-70
2021/08/01 06:28:31;;;;;;;16.67;5.90;;;;;;;;;;5116644;28;20495;-72
2021/08/01 06:30:58;;;;;;;21.38;6.15;;;;;;;;;;5116655;28;20011;-74
2021/08/01 06:33:24;;;;;;;18.38;6.18;;;;;;;;;;5116262;28;20498;-70
2021/08/01 06:35:50;;;;;;;16.05;5.97;;;;;;;;;;5116407;28;20031;-70
2021/08/01 06:38:16;;;;;;;23.00;7.05;;;;;;;;;;5116467;28;20469;-69
2021/08/01 06:40:42;;;;;;;21.67;6.20;;;;;;;;;;5115522;28;20035;-70
2021/08/01 06:43:08;;;;;;;22.42;6.93;;;;;;;;;;5115939;28;20040;-69
2021/08/01 06:45:34;;;;;;;36.55;7.45;;;;;;;;;;5116396;28;20024;-68
2021/08/01 06:48:00;;;;;;;26.40;7.50;;;;;;;;;;5116127;28;20073;-70
2021/08/01 06:50:26;;;;;;;22.10;6.80;;;;;;;;;;5116106;28;20474;-71
2021/08/01 06:52:52;;;;;;;25.27;6.65;;;;;;;;;;5116221;28;20027;-71
2021/08/01 06:55:18;;;;;;;29.95;7.30;;;;;;;;;;5115394;28;20028;-70
2021/08/01 06:57:44;;;;;;;21.80;6.38;;;;;;;;;;5115588;28;20039;-70
2021/08/01 07:00:11;;;;;;;28.80;7.90;;;;;;;;;;5115641;28;20008;-70
2021/08/01 07:02:37;;;;;;;29.50;6.60;;;;;;;;;;5115444;28;20071;-70
2021/08/01 07:05:03;;;;;;;30.63;6.38;;;;;;;;;;5115432;28;20016;-70
2021/08/01 07:07:28;;;;;;;20.13;6.80;;;28.70;60.70;;;;;;5115551;28;20032;-71
2021/08/01 07:09:54;;;;;;;25.98;6.55;;;28.70;61.30;;;;;;5114977;28;20016;-71
2021/08/01 07:12:20;;;;;;;31.58;6.80;;;28.70;61.80;;;;;;5114418;28;20140;-70
2021/08/01 07:14:47;;;;;;;26.10;7.38;;;28.60;61.90;;;;;;5115536;28;20008;-70
2021/08/01 07:17:12;;;;;;;28.30;7.40;;;28.60;62.70;;;;;;5115483;28;20051;-71
2021/08/01 07:19:38;;;;;;;27.55;7.47;;;28.70;63.10;;;;;;5115551;28;20472;-70
2021/08/01 07:22:04;;;;;;;21.55;6.93;;;28.70;63.20;;;;;;5115180;28;20043;-71
2021/08/01 07:24:30;;;;;;;27.92;6.95;;;28.70;63.30;;;;;;5115497;28;20027;-70
2021/08/01 07:26:56;;;;;;;25.50;7.15;;;28.70;64.40;;;;;;5115563;28;20032;-69
2021/08/01 07:29:24;;;;;;;20.33;6.97;;;28.70;62.90;;;;;;5115444;28;20023;-70
2021/08/01 07:31:50;;;;;;;25.25;6.82;;;28.70;62.40;;;;;;5115270;28;20027;-70
2021/08/01 07:34:16;;;;;;;25.02;7.82;;;28.70;62.30;;;;;;5115225;28;20024;-71
2021/08/01 07:36:45;;;;;;;18.52;6.55;;;28.80;62.10;;;;;;5115467;28;20027;-71
2021/08/01 07:39:11;;;;;;;24.58;6.68;;;28.90;60.60;;;;;;5115392;28;20024;-70
2021/08/01 07:41:36;;;;;;;18.88;6.00;;;28.90;59.60;;;;;;5114954;28;20043;-71
2021/08/01 07:44:02;;;;;;;33.53;6.68;;;28.90;59.40;;;;;;5114730;28;20049;-70
2021/08/01 07:46:28;;;;;;;23.58;6.55;;;28.90;59.80;;;;;;5115281;28;20023;-71
2021/08/01 07:48:53;;;;;;;28.83;7.13;;;28.90;59.70;;;;;;5115017;28;20059;-71
2021/08/01 07:51:19;;;;;;;21.40;6.15;;;28.80;60.00;;;;;;5114223;28;20073;-71
2021/08/01 07:53:45;;;;;;;22.30;7.05;;;28.90;59.80;;;;;;5114703;28;20059;-71
2021/08/01 07:56:10;;;;;;;29.63;6.72;;;28.80;59.60;;;;;;5114745;28;20020;-72
2021/08/01 07:58:36;;;;;;;29.08;7.88;;;28.80;60.30;;;;;;5114965;28;20429;-73
2021/08/01 08:01:02;;;;;;;27.27;6.30;;;28.80;61.60;;;;;;5114916;28;20064;-71
2021/08/01 08:03:28;;;;;;;20.30;6.90;;;28.80;60.90;;;;;;5114803;28;20042;-71
2021/08/01 08:05:53;;;;;;;24.08;7.10;;;28.70;60.10;;;;;;5114881;28;20020;-71
2021/08/01 08:08:19;;;;;;;21.17;7.03;;;28.80;59.70;;;;;;5114826;28;20035;-70
2021/08/01 08:10:45;;;;;;;28.38;6.55;;;28.80;59.90;;;;;;5114554;28;20043;-73
2021/08/01 08:13:10;;;;;;;22.08;6.95;;;28.80;61.40;;;;;;5114623;28;20042;-73
2021/08/01 08:15:37;;;;;;;26.92;7.10;;;28.80;60.50;;;;;;5114542;28;20029;-72
2021/08/01 08:18:03;;;;;;;21.92;6.53;;;28.90;61.30;;;;;;5114806;28;20096;-72
2021/08/01 08:20:29;;;;;;;21.60;6.97;;;28.90;62.10;;;;;;5114559;28;20032;-71
2021/08/01 08:22:54;;;;;;;17.63;6.07;;;28.90;62.40;;;;;;5114348;28;20041;-71
2021/08/01 08:25:20;;;;;;;20.75;6.18;;;28.90;62.50;;;;;;5114339;28;20019;-72
2021/08/01 08:27:46;;;;;;;22.75;6.40;;;28.90;62.10;;;;;;5114238;28;20053;-72
2021/08/01 08:30:12;;;;;;;23.75;7.40;;;28.90;62.10;;;;;;5114718;28;20020;-72
2021/08/01 08:32:38;;;;;;;20.13;7.88;;;28.90;62.00;;;;;;5113018;28;20439;-71
2021/08/01 08:35:04;;;;;;;21.55;6.53;;;28.90;62.10;;;;;;5113976;28;20028;-71
2021/08/01 08:37:30;;;;;;;22.40;7.40;;;28.90;62.40;;;;;;5113708;28;20446;-72
2021/08/01 08:39:55;;;;;;;22.63;7.05;;;28.80;62.70;;;;;;5114070;28;20565;-71
2021/08/01 08:42:22;;;;;;;24.00;6.35;;;28.70;62.60;;;;;;5114129;28;20027;-71
2021/08/01 08:44:48;;;;;;;20.70;6.82;;;28.70;63.50;;;;;;5113601;28;20024;-71
2021/08/01 08:47:17;;;;;;;18.73;6.63;;;28.70;64.40;;;;;;5113015;28;20015;-71
2021/08/01 08:49:48;;;;;;;22.40;7.82;;;28.70;64.50;;;;;;5113267;28;20015;-72
2021/08/01 08:52:15;;;;;;;25.15;6.82;;;28.70;64.20;;;;;;5113453;28;20479;-72
2021/08/01 08:54:50;;;;;;;23.40;7.13;;;28.70;64.30;;;;;;5113777;28;20028;-72
2021/08/01 08:57:29;;;;;;;22.00;6.32;;;28.70;64.40;;;;;;5113542;28;20019;-72
2021/08/01 09:00:02;;;;;;;34.95;7.30;;;28.60;63.00;;;;;;5113220;28;20024;-72
2021/08/01 09:02:27;;;;;;;16.55;6.93;;;28.40;63.70;;;;;;5112977;28;20035;-73
2021/08/01 09:04:54;;;;;;;23.27;6.55;;;;;;;;;;5113357;28;20482;-71
2021/08/01 09:07:20;;;;;;;18.73;5.10;;;;;;;;;;5113768;28;20043;-71
2021/08/01 09:09:46;;;;;;;16.65;4.00;;;;;;;;;;5113449;28;20026;-71
2021/08/01 09:12:12;;;;;;;13.25;3.40;;;;;;;;;;5112924;28;20047;-71
2021/08/01 09:14:39;;;;;;;9.85;2.90;;;;;;;;;;5113573;28;20411;-71
2021/08/01 09:17:06;;;;;;;12.07;3.45;;;;;;;;;;5113620;28;20034;-71
2021/08/01 09:19:36;;;;;;;10.25;2.50;;;;;;;;;;5113387;28;20020;-71
2021/08/01 09:22:18;;;;;;;9.25;3.42;;;;;;;;;;5113037;28;20464;-71
2021/08/01 09:24:48;;;;;;;10.13;3.33;;;;;;;;;;5113113;28;20055;-71
2021/08/01 09:27:29;;;;;;;9.02;3.40;;;;;;;;;;5113552;28;20023;-71
2021/08/01 09:29:55;;;;;;;6.00;3.10;;;;;;;;;;5113266;28;20028;-71
2021/08/01 09:32:21;;;;;;;10.05;3.10;;;;;;;;;;5113421;28;20051;-71
2021/08/01 09:34:49;;;;;;;19.63;4.30;;;;;;;;;;5112110;28;20027;-71
2021/08/01 09:37:29;;;;;;;19.13;5.63;;;;;;;;;;5108561;28;20020;-71
2021/08/01 09:40:04;;;;;;;24.50;5.40;;;;;;;;;;5110399;28;20070;-71
2021/08/01 09:42:39;;;;;;;23.77;4.93;;;;;;;;;;5111734;28;20487;-71
2021/08/01 09:45:25;;;;;;;8.40;3.22;;;;;;;;;;5113266;28;20035;-71
2021/08/01 09:47:52;;;;;;;7.45;3.17;;;;;;;;;;5113191;28;20020;-71
2021/08/01 09:50:19;;;;;;;9.02;3.60;;;;;;;;;;5113029;28;20030;-71
2021/08/01 09:52:45;;;;;;;14.07;3.97;;;;;;;;;;5113232;28;20076;-71
2021/08/01 09:55:21;;;;;;;30.88;5.88;;;;;;;;;;5113128;28;20116;-72
2021/08/01 09:57:54;;;;;;;34.92;7.07;;;;;;;;;;5112646;28;20494;-70
2021/08/01 10:00:23;;;;;;;27.27;6.68;;;;;;;;;;5113111;28;20077;-71
2021/08/01 10:02:49;;;;;;;18.70;6.90;;;;;;;;;;5111716;28;20054;-71
2021/08/01 10:05:22;;;;;;;18.58;6.15;;;;;;;;;;5112754;28;20028;-72
2021/08/01 10:07:49;;;;;;;17.92;6.93;;;;;;;;;;5113036;28;20020;-69
2021/08/01 10:10:20;;;;;;;16.25;5.57;;;;;;;;;;5112820;28;20023;-76
2021/08/01 10:12:47;;;;;;;14.93;5.22;;;;;;;;;;5112764;28;20039;-74
2021/08/01 10:15:13;;;;;;;12.75;4.85;;;27.10;70.50;;;;;;5114404;28;20040;-72
2021/08/01 10:17:39;;;;;;;11.45;5.10;;;26.90;70.10;;;;;;5116431;28;20031;-72
2021/08/01 10:20:06;;;;;;;12.88;5.45;;;26.80;70.90;;;;;;5116280;28;20375;-73
2021/08/01 10:22:35;;;;;;;13.98;5.45;;;26.80;70.70;;;;;;5116425;28;20032;-73
2021/08/01 10:25:06;;;;;;;59.08;8.00;;;26.80;71.70;;;;;;5116241;28;20016;-73
2021/08/01 10:27:35;;;;;;;14.93;5.53;;;26.80;72.40;;;;;;5115664;28;20467;-72
2021/08/01 10:30:01;;;;;;;19.08;5.78;;;26.70;71.90;;;;;;5116145;28;20034;-72
2021/08/01 10:32:30;;;;;;;14.77;6.07;;;26.80;73.00;;;;;;5115223;28;20420;-73
2021/08/01 10:35:12;;;;;;;20.15;7.32;;;26.80;72.90;;;;;;5116094;28;20055;-73
2021/08/01 10:37:44;;;;;;;31.10;9.15;;;26.90;72.30;;;;;;5116383;28;20016;-74
2021/08/01 10:40:14;;;;;;;22.50;8.32;;;27.10;74.30;;;;;;5115127;28;20024;-73
2021/08/01 10:42:44;;;;;;;23.98;8.25;;;27.20;74.40;;;;;;5114462;28;20491;-73
2021/08/01 10:45:11;;;;;;;22.20;7.97;;;27.40;74.60;;;;;;5116024;28;20035;-73
2021/08/01 10:47:43;;;;;;;19.35;7.25;;;27.60;71.60;;;;;;5115428;28;20024;-73
2021/08/01 10:50:10;;;;;;;30.85;7.00;;;27.90;69.70;;;;;;5115507;28;20042;-76
2021/08/01 10:52:36;;;;;;;46.70;8.00;;;27.90;70.10;;;;;;5115627;28;20032;-75
2021/08/01 10:55:06;;;;;;;29.52;8.07;;;28.10;69.10;;;;;;5115966;28;20023;-76
2021/08/01 10:57:33;;;;;;;21.00;6.65;;;28.20;67.80;;;;;;5115603;28;20368;-75
2021/08/01 11:00:04;;;;;;;23.67;6.25;;;28.40;66.00;;;;;;5115465;28;20106;-76
2021/08/01 11:02:30;;;;;;;24.58;6.35;;;28.40;64.70;;;;;;5115855;28;20047;-75
2021/08/01 11:04:56;;;;;;;20.80;5.82;;;28.60;64.60;;;;;;5115935;28;20138;-76
2021/08/01 11:07:28;;;;;;;21.00;5.45;;;28.70;61.70;;;;;;5115325;28;20077;-76
2021/08/01 11:10:15;;;;;;;;;;;28.70;63.50;;;;;;5116152;28;20038;-75
2021/08/01 11:12:42;;;;;;;19.73;5.72;;;28.70;62.80;;;;;;5115643;28;19919;-75
2021/08/01 11:15:09;;;;;;;24.08;6.05;;;28.80;58.90;;;;;;5115249;28;20025;-74
2021/08/01 11:17:41;;;;;;;17.70;6.78;;;28.90;60.60;;;;;;5113128;28;20157;-76
2021/08/01 11:20:27;;;;;;;;;;;28.80;61.90;;;;;;5113237;28;20028;-75
2021/08/01 11:22:54;;;;;;;18.05;5.97;;;28.80;62.90;;;;;;5104221;28;20387;-76
2021/08/01 11:25:23;;;;;;;17.98;5.20;;;28.90;60.40;;;;;;5114977;28;20094;-76
2021/08/01 11:28:07;;;;;;;23.98;5.95;;;28.80;60.90;;;;;;5115258;28;20028;-76
2021/08/01 11:30:51;;;;;;;17.23;5.90;;;28.80;59.80;;;;;;5115293;28;20443;-76
2021/08/01 11:33:32;;;;;;;25.10;5.90;;;28.80;59.70;;;;;;5115243;28;20019;-76
2021/08/01 11:36:13;;;;;;;21.83;6.25;;;28.80;61.00;;;;;;5115046;28;20028;-76
2021/08/01 11:38:39;;;;;;;17.88;5.90;;;28.80;61.40;;;;;;5113165;28;20089;-76
2021/08/01 11:41:06;;;;;;;23.92;5.97;;;28.80;61.40;;;;;;5112023;28;20046;-75
2021/08/01 11:43:32;;;;;;;18.30;6.03;;;28.80;61.50;;;;;;5111449;28;20032;-75
2021/08/01 11:45:59;;;;;;;16.08;5.93;;;28.80;62.50;;;;;;5112016;28;20103;-75
2021/08/01 11:48:25;;;;;;;17.55;6.38;;;28.80;62.80;;;;;;5113387;28;20046;-76
2021/08/01 11:50:53;;;;;;;24.60;6.47;;;28.80;63.20;;;;;;5114239;28;20020;-76
2021/08/01 11:53:19;;;;;;;20.15;6.47;;;28.90;63.20;;;;;;5114528;28;20050;-75
2021/08/01 11:55:49;;;;;;;17.75;7.28;;;28.90;63.80;;;;;;5114689;28;20072;-77
2021/08/01 11:58:15;;;;;;;24.40;7.50;;;29.00;64.90;;;;;;5114249;28;20031;-75
2021/08/01 12:00:42;;;;;;;20.35;7.15;;;29.00;65.20;;;;;;5114299;28;20046;-75
2021/08/01 12:03:09;;;;;;;16.80;7.03;;;29.10;65.00;;;;;;5114373;28;20039;-75
2021/08/01 12:05:49;;;;;;;30.05;7.25;;;29.10;65.90;;;;;;5114172;28;20030;-76
2021/08/01 12:08:34;;;;;;;22.58;7.05;;;29.10;66.20;;;;;;5114119;28;20494;-76
2021/08/01 12:11:17;;;;;;;28.48;7.68;;;29.10;65.40;;;;;;5114267;28;20048;-75
2021/08/01 12:14:03;;;;;;;22.17;6.68;;;29.10;66.40;;;;;;5114444;28;20066;-76
2021/08/01 12:16:28;;;;;;;22.83;6.47;;;28.90;66.60;;;;;;5114071;28;20024;-75
2021/08/01 12:19:18;;;;;;;22.27;6.32;;;28.90;65.10;;;;;;5113925;28;20237;-75
2021/08/01 12:21:44;;;;;;;22.63;5.95;;;28.80;63.20;;;;;;5114148;28;20043;-76
2021/08/01 12:24:30;;;;;;;18.95;4.85;;;28.80;64.50;;;;;;5114143;28;20072;-75
2021/08/01 12:27:11;;;;;;;18.52;5.50;;;28.70;65.20;;;;;;5113745;28;20024;-76
2021/08/01 12:29:43;;;;;;;20.63;5.15;;;28.70;64.90;;;;;;5114004;28;20024;-76
2021/08/01 12:32:35;;;;;;;;;;;28.70;65.00;;;;;;5114388;28;20024;-75
2021/08/01 12:35:08;;;;;;;20.48;4.97;;;28.70;64.70;;;;;;5110021;28;19918;-75
2021/08/01 12:38:02;;;;;;;21.67;5.18;;;28.70;65.00;;;;;;5112899;28;20453;-76
2021/08/01 12:40:33;;;;;;;25.95;5.53;;;28.70;65.20;;;;;;5112734;28;20024;-75
2021/08/01 12:43:09;;;;;;;16.40;4.90;;;;;;;;;;5113451;28;20031;-74
2021/08/01 12:45:36;;;;;;;24.48;5.38;;;;;;;;;;5110961;28;20016;-75
2021/08/01 12:48:06;;;;;;;19.15;5.32;;;;;;;;;;5112431;28;20080;-75
2021/08/01 12:50:33;;;;;;;18.60;5.78;;;;;;;;;;5111872;28;20034;-75
2021/08/01 12:53:00;;;;;;;21.35;5.30;;;;;;;;;;5113498;28;20062;-76
2021/08/01 12:55:27;;;;;;;18.73;5.60;;;;;;;;;;5113193;28;20020;-75
2021/08/01 12:58:06;;;;;;;23.15;5.70;;;;;;;;;;5112837;28;20032;-76
2021/08/01 13:00:34;;;;;;;17.20;5.68;;;;;;;;;;5112900;28;20016;-76
2021/08/01 13:03:02;;;;;;;17.73;5.57;;;;;;;;;;5112164;28;20431;-75
2021/08/01 13:05:29;;;;;;;16.67;5.47;;;;;;;;;;5113039;28;20057;-74
2021/08/01 13:07:56;;;;;;;13.98;4.93;;;;;;;;;;5113735;28;20037;-75
2021/08/01 13:10:22;;;;;;;17.35;5.45;;;;;;;;;;5112434;28;20015;-76
2021/08/01 13:13:10;;;;;;;29.27;5.28;;;;;;;;;;5111368;28;20031;-77